Time;durP1;ratioP1;P1;durP2;ratioP2;P2;SDS_P1;SDS_P2;PMS_P1;PMS_P2;Temp;Humidity;BMP_temperature;BMP_pressure;BME280_temperature;BME280_humidity;BME280_pressure;Samples;Min_cycle;Max_cycle;Signal;HPM_P1;HPM_P2
2023/02/02 00:00:41;;;;;;;3.53;2.30;;;23.00;40.00;;;;;;6129998;28;81495;-63
2023/02/02 00:03:41;;;;;;;3.78;2.25;;;23.00;40.20;;;;;;6131528;28;80513;-63
2023/02/02 00:06:42;;;;;;;3.95;2.03;;;23.00;40.10;;;;;;6124392;28;80612;-63
2023/02/02 00:09:42;;;;;;;4.32;1.85;;;22.90;40.00;;;;;;6124861;28;80076;-64
2023/02/02 00:12:43;;;;;;;3.45;2.00;;;22.90;40.00;;;;;;6124287;28;81060;-65
2023/02/02 00:15:43;;;;;;;4.35;1.92;;;22.90;40.00;;;;;;6129901;28;80812;-63
2023/02/02 00:18:44;;;;;;;3.47;1.98;;;22.90;40.00;;;;;;6120479;28;80480;-63
2023/02/02 00:21:44;;;;;;;3.10;1.90;;;22.90;39.90;;;;;;6127134;28;81618;-62
2023/02/02 00:24:45;;;;;;;4.05;1.80;;;22.80;39.90;;;;;;6129106;28;80704;-64
2023/02/02 00:27:45;;;;;;;1.90;1.52;;;22.80;39.90;;;;;;6142992;28;83881;-64
2023/02/02 00:30:46;;;;;;;3.78;2.35;;;22.80;39.90;;;;;;6132200;28;81238;-63
2023/02/02 00:33:46;;;;;;;3.30;1.80;;;22.80;40.00;;;;;;6144312;28;80365;-65
2023/02/02 00:36:47;;;;;;;2.67;1.80;;;22.70;40.00;;;;;;6137694;28;80934;-65
2023/02/02 00:39:47;;;;;;;4.10;2.03;;;22.70;39.90;;;;;;6111989;28;81426;-64
2023/02/02 00:42:49;;;;;;;2.70;1.52;;;22.70;39.70;;;;;;6115062;28;82013;-62
2023/02/02 00:45:51;;;;;;;2.05;1.60;;;22.70;39.70;;;;;;6118114;28;80852;-63
2023/02/02 00:48:51;;;;;;;2.65;1.40;;;22.70;39.70;;;;;;6108660;28;80082;-62
2023/02/02 00:51:52;;;;;;;3.28;1.90;;;22.70;39.70;;;;;;6119531;28;81899;-62
2023/02/02 00:54:52;;;;;;;4.10;1.48;;;22.60;39.80;;;;;;6131252;28;83216;-62
2023/02/02 00:57:53;;;;;;;3.53;1.67;;;22.60;39.70;;;;;;6128952;28;80812;-60
2023/02/02 01:00:54;;;;;;;1.95;1.30;;;22.70;39.80;;;;;;6124803;28;82333;-51
2023/02/02 01:03:55;;;;;;;2.88;1.65;;;22.60;39.80;;;;;;6125062;28;83797;-46
2023/02/02 01:06:56;;;;;;;3.17;1.40;;;22.60;39.70;;;;;;6125006;28;83379;-46
2023/02/02 01:09:57;;;;;;;1.83;1.25;;;22.60;39.70;;;;;;6124890;28;82979;-46
2023/02/02 01:12:57;;;;;;;2.50;1.40;;;22.60;39.70;;;;;;6129079;28;80364;-45
2023/02/02 01:15:58;;;;;;;3.33;1.40;;;22.50;39.70;;;;;;6139139;28;80526;-47
2023/02/02 01:18:59;;;;;;;2.22;1.45;;;22.50;39.60;;;;;;6130161;28;80257;-51
2023/02/02 01:22:00;;;;;;;2.65;1.13;;;22.50;39.60;;;;;;6131879;28;81066;-51
2023/02/02 01:25:00;;;;;;;1.35;1.23;;;22.50;39.70;;;;;;6131054;28;81194;-53
2023/02/02 01:28:01;;;;;;;1.40;1.27;;;22.50;39.70;;;;;;6140935;28;81528;-52
2023/02/02 01:31:01;;;;;;;1.75;1.30;;;22.50;39.70;;;;;;6142505;28;81207;-53
2023/02/02 01:34:02;;;;;;;2.20;1.30;;;22.50;39.80;;;;;;6133627;28;81059;-50
2023/02/02 01:37:04;;;;;;;1.85;1.33;;;22.50;39.70;;;;;;6140209;28;80353;-50
2023/02/02 01:40:04;;;;;;;1.80;1.35;;;22.50;39.80;;;;;;6111302;28;80464;-49
2023/02/02 01:43:05;;;;;;;2.60;1.40;;;22.50;39.80;;;;;;6120498;28;80343;-49
2023/02/02 01:46:05;;;;;;;1.92;1.20;;;22.50;39.80;;;;;;6109868;28;82161;-49
2023/02/02 01:49:06;;;;;;;2.67;1.50;;;22.50;39.70;;;;;;6108134;28;80596;-50
2023/02/02 01:52:06;;;;;;;1.10;1.00;;;22.50;39.70;;;;;;6131304;28;80981;-51
2023/02/02 01:55:07;;;;;;;1.70;1.20;;;22.40;39.70;;;;;;6129111;28;80630;-50
2023/02/02 01:58:07;;;;;;;1.80;1.33;;;22.50;39.90;;;;;;6120391;28;82168;-49
2023/02/02 02:01:09;;;;;;;1.42;1.00;;;22.40;39.70;;;;;;6124156;28;82992;-48
2023/02/02 02:04:10;;;;;;;1.20;1.10;;;22.50;39.80;;;;;;6129905;28;80034;-48
2023/02/02 02:07:11;;;;;;;1.83;1.13;;;22.40;39.80;;;;;;6127435;28;81994;-47
2023/02/02 02:10:11;;;;;;;2.10;1.23;;;22.50;39.90;;;;;;6125581;28;83471;-47
2023/02/02 02:13:12;;;;;;;2.30;1.23;;;22.40;39.80;;;;;;6125117;28;83664;-46
2023/02/02 02:16:19;;;;;;;1.98;1.17;;;22.40;39.80;;;;;;6131207;28;83550;-46
2023/02/02 02:19:20;;;;;;;2.08;1.15;;;22.40;40.00;;;;;;6118184;28;83278;-46
2023/02/02 02:29:00;;;;;;;2.20;1.35;;;22.40;40.20;;;;;;6127810;28;83411;-48
2023/02/02 02:32:01;;;;;;;1.83;1.30;;;22.40;40.30;;;;;;6127599;28;83509;-63
2023/02/02 02:35:02;;;;;;;1.38;1.17;;;22.40;40.30;;;;;;6127200;28;82797;-63
2023/02/02 02:38:02;;;;;;;1.13;0.98;;;22.40;40.30;;;;;;6125262;28;80318;-64
2023/02/02 02:41:03;;;;;;;1.95;1.45;;;22.40;40.40;;;;;;6122854;28;83670;-64
2023/02/02 02:44:04;;;;;;;1.42;1.10;;;22.40;40.40;;;;;;6140198;28;83427;-63
2023/02/02 02:47:05;;;;;;;1.95;1.23;;;22.40;40.40;;;;;;6128405;28;81555;-64
2023/02/02 02:50:06;;;;;;;1.40;1.10;;;22.40;40.50;;;;;;6128475;28;81942;-64
2023/02/02 02:53:07;;;;;;;1.90;1.20;;;22.40;40.50;;;;;;6138979;28;83086;-62
2023/02/02 02:56:07;;;;;;;2.42;1.00;;;22.40;40.50;;;;;;6136187;28;83243;-63
2023/02/02 02:59:08;;;;;;;1.73;1.10;;;22.40;40.50;;;;;;6127608;28;80571;-64
2023/02/02 03:02:08;;;;;;;2.10;1.05;;;22.30;40.60;;;;;;6130924;28;80846;-64
2023/02/02 03:05:09;;;;;;;1.85;1.20;;;22.30;40.50;;;;;;6138511;28;82454;-63
2023/02/02 03:08:09;;;;;;;1.77;1.20;;;22.30;40.50;;;;;;6130395;28;80380;-64
2023/02/02 03:11:10;;;;;;;1.65;1.35;;;22.30;40.40;;;;;;6133484;28;80867;-64
2023/02/02 03:14:11;;;;;;;1.92;1.13;;;22.30;40.40;;;;;;6137013;28;80786;-64
2023/02/02 03:17:12;;;;;;;1.17;1.00;;;22.30;40.30;;;;;;6129683;28;80940;-64
2023/02/02 03:20:12;;;;;;;1.50;1.00;;;22.30;40.30;;;;;;6113425;28;81526;-64
2023/02/02 03:23:13;;;;;;;2.22;1.40;;;22.30;40.20;;;;;;6128793;28;81841;-63
2023/02/02 03:26:13;;;;;;;2.05;1.23;;;22.30;40.30;;;;;;6146780;28;81579;-64
2023/02/02 03:29:14;;;;;;;1.52;1.10;;;22.30;40.20;;;;;;6149726;28;80702;-64
2023/02/02 03:32:14;;;;;;;1.77;1.20;;;22.30;40.20;;;;;;6128772;28;80422;-62
2023/02/02 03:35:15;;;;;;;1.95;1.33;;;22.30;40.30;;;;;;6116414;28;81027;-62
2023/02/02 03:38:15;;;;;;;1.90;1.30;;;22.30;40.40;;;;;;6121504;28;80951;-62
2023/02/02 03:41:16;;;;;;;1.85;1.08;;;22.30;40.50;;;;;;6112603;28;80673;-63
2023/02/02 03:44:17;;;;;;;1.48;1.30;;;22.30;40.30;;;;;;6132465;28;81153;-61
2023/02/02 03:47:17;;;;;;;1.13;1.02;;;22.30;40.30;;;;;;6141301;28;80691;-63
2023/02/02 03:50:18;;;;;;;1.10;0.90;;;22.30;40.40;;;;;;6128349;28;80857;-62
2023/02/02 03:53:18;;;;;;;1.95;1.30;;;22.30;40.20;;;;;;6136036;28;81204;-63
2023/02/02 03:56:19;;;;;;;1.48;1.13;;;22.30;40.40;;;;;;6140242;28;80517;-63
2023/02/02 03:59:19;;;;;;;2.65;1.50;;;22.30;40.50;;;;;;6114443;28;82231;-64
2023/02/02 04:02:20;;;;;;;3.13;1.20;;;22.30;40.30;;;;;;6112044;28;80135;-48
2023/02/02 04:05:20;;;;;;;3.28;1.30;;;22.40;40.10;;;;;;6103495;28;80413;-49
2023/02/02 04:08:21;;;;;;;2.10;1.30;;;22.40;40.00;;;;;;6112204;28;80522;-52
2023/02/02 04:11:21;;;;;;;2.38;1.40;;;22.40;40.80;;;;;;6119808;28;81329;-48
2023/02/02 04:14:22;;;;;;;2.03;1.33;;;22.50;40.40;;;;;;6114657;28;80311;-47
2023/02/02 04:17:22;;;;;;;2.47;1.55;;;22.60;40.90;;;;;;6107391;28;85741;-49
2023/02/02 04:20:23;;;;;;;2.42;1.40;;;22.60;40.90;;;;;;6124785;28;81283;-48
2023/02/02 04:23:23;;;;;;;3.65;1.38;;;22.70;40.90;;;;;;6138446;28;80318;-49
2023/02/02 04:26:25;;;;;;;6.88;1.38;;;22.70;41.10;;;;;;6138272;28;81904;-47
2023/02/02 04:29:25;;;;;;;2.47;1.35;;;22.70;41.50;;;;;;6140556;28;80605;-48
2023/02/02 04:32:26;;;;;;;3.63;1.52;;;22.80;41.80;;;;;;6123778;28;80820;-49
2023/02/02 04:35:26;;;;;;;1.67;1.35;;;22.80;42.10;;;;;;6103996;28;82539;-47
2023/02/02 04:38:27;;;;;;;3.70;1.35;;;22.80;42.20;;;;;;6126920;28;81490;-48
2023/02/02 04:41:27;;;;;;;5.07;1.40;;;22.80;42.30;;;;;;6127714;28;80927;-49
2023/02/02 04:44:28;;;;;;;1.67;1.00;;;22.90;42.30;;;;;;6129500;28;80816;-48
2023/02/02 04:47:28;;;;;;;2.33;1.25;;;22.90;42.40;;;;;;6136772;28;81105;-49
2023/02/02 04:50:29;;;;;;;5.70;1.70;;;22.90;41.90;;;;;;6126686;28;80483;-49
2023/02/02 04:53:29;;;;;;;2.92;1.33;;;22.90;41.70;;;;;;6126447;28;83637;-48
2023/02/02 04:56:30;;;;;;;3.42;1.65;;;22.90;41.30;;;;;;6138997;28;80872;-47
2023/02/02 04:59:30;;;;;;;4.82;1.77;;;22.90;41.00;;;;;;6124748;28;81538;-46
2023/02/02 05:02:31;;;;;;;3.45;1.50;;;22.90;41.40;;;;;;6101528;28;80414;-46
2023/02/02 05:05:31;;;;;;;5.13;1.65;;;23.00;41.90;;;;;;6105849;28;80890;-50
2023/02/02 05:08:32;;;;;;;4.15;1.85;;;23.00;42.10;;;;;;6108488;28;81288;-46
2023/02/02 05:11:32;;;;;;;4.82;1.35;;;23.10;42.00;;;;;;6116821;28;81284;-56
2023/02/02 05:14:33;;;;;;;2.65;1.35;;;23.00;42.10;;;;;;6102648;28;80918;-56
2023/02/02 05:17:33;;;;;;;3.08;1.70;;;23.10;41.80;;;;;;6108735;28;83506;-61
2023/02/02 05:20:34;;;;;;;4.57;1.77;;;23.10;41.60;;;;;;6109797;28;86425;-60
2023/02/02 05:23:34;;;;;;;2.72;1.60;;;23.10;41.80;;;;;;6107341;28;81491;-58
2023/02/02 05:26:35;;;;;;;6.68;1.55;;;23.10;41.80;;;;;;6123554;28;81434;-57
2023/02/02 05:29:36;;;;;;;2.85;1.60;;;23.10;41.50;;;;;;6118499;28;80443;-59
2023/02/02 05:32:36;;;;;;;2.75;1.40;;;23.10;41.70;;;;;;6117992;28;80406;-60
2023/02/02 05:35:37;;;;;;;4.07;1.75;;;23.10;41.80;;;;;;6108379;28;81539;-59
2023/02/02 05:38:37;;;;;;;4.03;1.73;;;23.10;41.90;;;;;;6114758;28;80563;-60
2023/02/02 05:41:38;;;;;;;4.78;2.00;;;23.10;41.80;;;;;;6115570;28;80376;-60
2023/02/02 05:44:38;;;;;;;3.92;1.58;;;23.10;41.70;;;;;;6116731;28;80570;-60
2023/02/02 05:47:39;;;;;;;3.90;1.80;;;23.10;41.10;;;;;;6128429;28;82233;-59
2023/02/02 05:50:39;;;;;;;4.85;1.95;;;23.10;40.80;;;;;;6121014;28;84821;-59
2023/02/02 05:53:40;;;;;;;4.60;1.60;;;23.10;40.50;;;;;;6123648;28;81839;-58
2023/02/02 05:56:40;;;;;;;4.75;2.20;;;23.10;40.60;;;;;;6128919;28;80545;-58
2023/02/02 05:59:41;;;;;;;8.75;2.17;;;23.10;40.80;;;;;;6118697;28;81619;-61
2023/02/02 06:02:41;;;;;;;6.75;2.15;;;23.10;40.80;;;;;;6113889;28;80501;-60
2023/02/02 06:05:42;;;;;;;9.27;2.53;;;23.10;40.40;;;;;;6128313;28;81570;-59
2023/02/02 06:08:42;;;;;;;4.35;2.40;;;23.10;40.20;;;;;;6111286;28;81665;-60
2023/02/02 06:11:43;;;;;;;5.72;1.85;;;23.10;40.00;;;;;;6144658;28;80284;-56
2023/02/02 06:14:43;;;;;;;4.95;1.83;;;23.10;39.90;;;;;;6137266;28;80828;-53
2023/02/02 06:17:44;;;;;;;3.08;1.90;;;23.10;39.90;;;;;;6123792;28;88053;-55
2023/02/02 06:20:46;;;;;;;5.30;2.03;;;23.10;39.90;;;;;;6129928;28;81205;-55
2023/02/02 06:23:47;;;;;;;5.97;2.38;;;23.10;39.70;;;;;;6130244;28;80221;-56
2023/02/02 06:26:47;;;;;;;9.40;2.15;;;23.00;39.60;;;;;;6127316;28;80643;-55
2023/02/02 06:29:48;;;;;;;7.03;2.03;;;23.00;39.30;;;;;;6113677;28;80475;-48
2023/02/02 06:32:48;;;;;;;7.10;2.10;;;23.00;39.30;;;;;;6134097;28;80455;-55
2023/02/02 06:35:49;;;;;;;9.13;2.40;;;23.00;39.20;;;;;;6121735;28;80272;-51
2023/02/02 06:38:50;;;;;;;5.93;2.30;;;22.90;39.10;;;;;;6114414;28;80798;-53
2023/02/02 06:41:50;;;;;;;4.68;2.25;;;22.80;39.10;;;;;;6107776;28;80516;-53
2023/02/02 06:44:51;;;;;;;5.35;2.55;;;22.80;38.90;;;;;;6104301;28;80702;-50
2023/02/02 06:47:51;;;;;;;3.95;2.10;;;22.70;38.50;;;;;;6125988;28;81879;-48
2023/02/02 06:50:52;;;;;;;5.35;2.25;;;22.70;38.30;;;;;;6120187;28;81666;-50
2023/02/02 06:53:53;;;;;;;8.90;2.75;;;22.60;37.90;;;;;;6124923;28;80737;-52
2023/02/02 06:56:54;;;;;;;6.40;1.95;;;22.50;37.30;;;;;;6132114;28;80390;-48
2023/02/02 06:59:55;;;;;;;6.70;2.38;;;22.40;37.10;;;;;;6123662;28;80669;-52
2023/02/02 07:02:55;;;;;;;7.00;2.22;;;22.40;37.10;;;;;;6107198;28;80522;-50
2023/02/02 07:05:56;;;;;;;7.60;2.22;;;22.40;36.80;;;;;;6118609;28;80403;-49
2023/02/02 07:08:57;;;;;;;4.15;2.00;;;22.40;37.00;;;;;;6116377;28;84886;-48
2023/02/02 07:11:57;;;;;;;4.65;2.20;;;22.40;37.20;;;;;;6105417;28;80593;-52
2023/02/02 07:14:58;;;;;;;4.43;2.20;;;22.40;37.10;;;;;;6107792;28;81036;-50
2023/02/02 07:17:59;;;;;;;6.07;2.28;;;22.40;37.30;;;;;;6116831;28;80141;-48
2023/02/02 07:20:59;;;;;;;4.40;2.17;;;22.40;37.40;;;;;;6126083;28;83674;-51
2023/02/02 07:24:00;;;;;;;7.07;2.28;;;22.40;37.30;;;;;;6124323;28;81261;-53
2023/02/02 07:27:00;;;;;;;6.07;2.40;;;22.40;37.30;;;;;;6128347;28;80633;-50
2023/02/02 07:30:01;;;;;;;5.47;2.35;;;22.40;37.30;;;;;;6133945;28;81931;-51
2023/02/02 07:33:01;;;;;;;5.65;2.55;;;22.30;37.40;;;;;;6143306;28;80337;-51
2023/02/02 07:36:02;;;;;;;6.07;2.72;;;22.30;37.50;;;;;;6119595;28;82825;-48
2023/02/02 07:39:03;;;;;;;7.70;2.28;;;22.30;37.40;;;;;;6130791;28;80218;-50
2023/02/02 07:42:04;;;;;;;8.02;2.60;;;22.30;37.50;;;;;;6119757;28;80686;-48
2023/02/02 07:45:10;;;;;;;20.58;3.90;;;22.30;37.40;;;;;;6119784;28;80531;-46
2023/02/02 07:48:10;;;;;;;29.92;5.30;;;22.30;37.50;;;;;;6115617;28;81496;-51
2023/02/02 07:51:11;;;;;;;27.40;3.78;;;22.30;37.70;;;;;;6125785;28;81747;-50
2023/02/02 07:54:11;;;;;;;30.17;4.20;;;22.30;37.60;;;;;;6114224;28;80535;-48
2023/02/02 07:57:12;;;;;;;13.15;3.30;;;22.20;37.70;;;;;;6119080;28;80544;-50
2023/02/02 08:00:13;;;;;;;18.33;3.72;;;22.20;37.50;;;;;;6107358;28;83042;-50
2023/02/02 08:03:13;;;;;;;19.92;4.90;;;22.20;37.70;;;;;;6107931;28;80518;-49
2023/02/02 08:06:14;;;;;;;25.63;5.65;;;22.20;37.70;;;;;;6106422;28;80526;-52
2023/02/02 08:09:14;;;;;;;18.85;3.88;;;22.20;37.60;;;;;;6106015;28;80372;-47
2023/02/02 08:12:15;;;;;;;23.42;4.07;;;22.20;37.70;;;;;;6128361;28;81000;-48
2023/02/02 08:15:15;;;;;;;23.02;5.13;;;22.20;37.70;;;;;;6129902;28;80180;-50
2023/02/02 08:18:16;;;;;;;26.52;5.07;;;22.20;37.70;;;;;;6116597;28;80877;-46
2023/02/02 08:21:17;;;;;;;19.48;3.92;;;22.20;37.70;;;;;;6115312;28;80614;-52
2023/02/02 08:24:17;;;;;;;20.55;3.53;;;22.10;37.60;;;;;;6121110;28;80467;-51
2023/02/02 08:27:18;;;;;;;13.95;3.80;;;22.20;37.70;;;;;;6126599;28;80384;-52
2023/02/02 08:30:18;;;;;;;10.55;2.88;;;22.20;37.70;;;;;;6116473;28;80890;-48
2023/02/02 08:33:19;;;;;;;10.80;2.65;;;22.20;37.80;;;;;;6118452;28;81535;-50
2023/02/02 08:36:19;;;;;;;16.73;3.22;;;22.20;37.80;;;;;;6118084;28;80439;-47
2023/02/02 08:39:20;;;;;;;6.70;2.83;;;22.20;37.80;;;;;;6128458;28;80399;-61
2023/02/02 08:42:20;;;;;;;13.45;2.75;;;22.30;37.80;;;;;;6154649;28;82416;-58
2023/02/02 08:45:21;;;;;;;8.23;2.67;;;22.30;37.80;;;;;;6127830;28;80364;-60
2023/02/02 08:48:21;;;;;;;15.27;3.22;;;22.30;37.70;;;;;;6136042;28;81931;-59
2023/02/02 08:51:22;;;;;;;11.07;2.63;;;22.30;37.70;;;;;;6130400;28;83373;-59
2023/02/02 08:54:22;;;;;;;8.63;3.20;;;22.40;37.70;;;;;;6112824;28;81155;-60
2023/02/02 08:57:23;;;;;;;8.80;2.72;;;22.40;37.60;;;;;;6122677;28;81192;-53
2023/02/02 09:00:24;;;;;;;7.32;2.88;;;22.40;37.50;;;;;;6134062;28;80379;-51
2023/02/02 09:03:24;;;;;;;7.53;2.72;;;22.40;37.60;;;;;;6122890;28;80570;-52
2023/02/02 09:06:25;;;;;;;10.20;3.15;;;22.50;37.50;;;;;;6135138;28;81389;-53
2023/02/02 09:09:26;;;;;;;5.93;2.72;;;22.50;37.50;;;;;;6120684;28;80986;-50
2023/02/02 09:12:26;;;;;;;13.10;2.90;;;22.50;37.50;;;;;;6140424;28;80712;-47
2023/02/02 09:15:27;;;;;;;10.85;3.40;;;22.50;37.60;;;;;;6139036;28;81366;-49
2023/02/02 09:18:27;;;;;;;8.38;2.92;;;22.50;37.60;;;;;;6136938;28;91272;-48
2023/02/02 09:21:28;;;;;;;7.70;2.25;;;22.50;37.50;;;;;;6131768;28;80281;-50
2023/02/02 09:24:28;;;;;;;7.20;2.10;;;22.50;37.50;;;;;;6131494;28;81952;-49
2023/02/02 09:27:29;;;;;;;3.42;1.95;;;22.50;37.40;;;;;;6132522;28;88155;-53
2023/02/02 09:30:29;;;;;;;5.88;2.42;;;22.60;37.40;;;;;;6124521;28;80385;-50
2023/02/02 09:33:30;;;;;;;5.75;2.72;;;22.60;37.40;;;;;;6134715;28;80891;-48
2023/02/02 09:36:31;;;;;;;6.65;1.80;;;22.60;37.40;;;;;;6130199;28;81000;-48
2023/02/02 09:39:31;;;;;;;5.30;1.95;;;22.60;37.30;;;;;;6138977;28;80271;-50
2023/02/02 09:42:32;;;;;;;4.82;2.25;;;22.60;37.30;;;;;;6121639;28;80638;-49
2023/02/02 09:45:32;;;;;;;4.97;2.15;;;22.60;37.30;;;;;;6128614;28;80528;-46
2023/02/02 09:48:33;;;;;;;6.72;2.10;;;22.70;37.40;;;;;;6138265;28;83212;-48
2023/02/02 09:51:35;;;;;;;8.98;2.38;;;22.70;37.40;;;;;;6133774;28;80624;-48
2023/02/02 09:54:35;;;;;;;9.00;2.28;;;22.70;37.40;;;;;;6135310;28;80465;-59
2023/02/02 09:57:36;;;;;;;4.50;2.38;;;22.70;37.40;;;;;;6133341;28;80449;-58
2023/02/02 10:00:37;;;;;;;3.85;1.95;;;22.70;37.30;;;;;;6123486;28;80610;-59
2023/02/02 10:03:37;;;;;;;3.30;1.67;;;22.70;37.30;;;;;;6137394;28;80082;-58
2023/02/02 10:06:38;;;;;;;7.38;2.75;;;22.70;37.40;;;;;;6138626;28;80259;-58
2023/02/02 10:09:39;;;;;;;3.38;2.10;;;22.70;37.40;;;;;;6130962;28;80727;-60
2023/02/02 10:12:45;;;;;;;6.22;1.92;;;22.70;37.40;;;;;;6121269;28;82155;-48
2023/02/02 10:15:47;;;;;;;3.78;2.10;;;22.70;37.40;;;;;;6107316;28;81254;-48
2023/02/02 10:18:48;;;;;;;7.20;3.00;;;22.70;37.40;;;;;;6109533;28;80658;-47
2023/02/02 10:21:49;;;;;;;13.73;3.60;;;22.70;37.40;;;;;;6109517;28;80884;-48
2023/02/02 10:24:49;;;;;;;12.15;2.90;;;22.70;37.40;;;;;;6114740;28;80875;-48
2023/02/02 10:27:50;;;;;;;8.52;2.80;;;22.70;37.40;;;;;;6126020;28;83837;-53
2023/02/02 10:30:50;;;;;;;6.53;2.55;;;22.70;37.40;;;;;;6111309;28;80444;-60
2023/02/02 10:33:51;;;;;;;15.88;3.67;;;22.70;37.40;;;;;;6126782;28;83396;-59
2023/02/02 10:36:51;;;;;;;11.45;3.08;;;22.70;37.40;;;;;;6115642;28;81567;-60
2023/02/02 10:39:52;;;;;;;22.83;3.80;;;22.70;37.40;;;;;;6124052;28;83321;-60
2023/02/02 10:46:12;;;;;;;15.07;2.72;;;22.70;37.50;;;;;;6125659;28;82772;-60
2023/02/02 10:49:12;;;;;;;8.05;2.70;;;22.70;37.40;;;;;;6130022;28;80918;-47
2023/02/02 10:52:13;;;;;;;11.50;3.17;;;22.70;37.50;;;;;;6109598;28;80607;-51
2023/02/02 10:55:13;;;;;;;9.80;2.65;;;22.80;37.60;;;;;;6107252;28;81628;-48
2023/02/02 10:58:14;;;;;;;9.23;2.83;;;22.80;37.60;;;;;;6119958;28;80550;-52
2023/02/02 11:01:16;;;;;;;16.65;3.10;;;22.80;37.70;;;;;;6124171;28;81914;-51
2023/02/02 11:07:36;;;;;;;6.15;2.55;;;22.80;37.80;;;;;;6107515;28;80327;-47
2023/02/02 11:10:36;;;;;;;9.45;2.58;;;22.80;37.80;;;;;;6137730;28;80343;-47
2023/02/02 11:13:37;;;;;;;15.02;3.67;;;22.80;37.80;;;;;;6098488;28;87015;-51
2023/02/02 11:16:37;;;;;;;13.43;3.35;;;22.80;37.80;;;;;;6119158;28;80435;-51
2023/02/02 11:19:38;;;;;;;17.13;2.97;;;22.80;37.70;;;;;;6120207;28;83684;-50
2023/02/02 11:22:39;;;;;;;17.27;3.20;;;22.90;37.70;;;;;;6123498;28;80297;-53
2023/02/02 11:25:40;;;;;;;20.35;2.90;;;22.90;37.90;;;;;;6128213;28;83050;-53
2023/02/02 11:28:40;;;;;;;13.98;4.13;;;22.80;37.70;;;;;;6124646;28;80393;-49
2023/02/02 11:31:42;;;;;;;21.42;4.43;;;22.90;37.70;;;;;;6130216;28;80263;-50
2023/02/02 11:34:42;;;;;;;14.75;4.28;;;22.90;37.70;;;;;;6130111;28;83848;-51
2023/02/02 11:37:43;;;;;;;25.60;5.13;;;22.90;38.00;;;;;;6130150;28;81052;-52
2023/02/02 11:40:43;;;;;;;18.80;3.90;;;22.90;37.90;;;;;;6131076;28;86352;-49
2023/02/02 11:43:44;;;;;;;20.13;4.13;;;22.90;37.90;;;;;;6127341;28;80283;-58
2023/02/02 11:46:44;;;;;;;11.82;3.83;;;22.90;37.90;;;;;;6130670;28;80528;-57
2023/02/02 11:49:45;;;;;;;16.48;4.03;;;22.80;37.90;;;;;;6131529;28;80422;-56
2023/02/02 11:52:46;;;;;;;21.60;4.10;;;22.90;37.80;;;;;;6122316;28;80624;-58
2023/02/02 11:55:46;;;;;;;17.52;4.25;;;22.90;37.70;;;;;;6119457;28;83205;-56
2023/02/02 11:58:47;;;;;;;18.50;3.50;;;22.90;37.70;;;;;;6102168;28;86452;-57
2023/02/02 12:01:47;;;;;;;12.43;3.90;;;22.90;37.70;;;;;;6142623;28;81332;-58
2023/02/02 12:04:48;;;;;;;9.20;3.13;;;22.90;37.60;;;;;;6122616;28;81240;-58
2023/02/02 12:07:48;;;;;;;7.43;3.10;;;22.90;37.60;;;;;;6130301;28;80931;-58
2023/02/02 12:10:49;;;;;;;8.13;3.55;;;22.90;37.60;;;;;;6116708;28;86543;-58
2023/02/02 12:13:50;;;;;;;10.02;3.53;;;22.90;37.60;;;;;;6109938;28;81118;-55
2023/02/02 12:16:52;;;;;;;11.93;3.75;;;22.90;37.60;;;;;;6105324;28;80968;-55
2023/02/02 12:19:53;;;;;;;11.25;3.80;;;22.90;37.50;;;;;;6106887;28;80316;-59
2023/02/02 12:22:53;;;;;;;7.15;3.45;;;22.90;37.50;;;;;;6106903;28;87056;-59
2023/02/02 12:25:54;;;;;;;10.40;3.28;;;22.90;37.50;;;;;;6106890;28;80694;-59
2023/02/02 12:28:54;;;;;;;6.32;3.10;;;22.90;37.80;;;;;;6117254;28;83944;-59
2023/02/02 12:31:55;;;;;;;8.77;3.13;;;22.90;38.10;;;;;;6120431;28;80527;-59
2023/02/02 12:34:56;;;;;;;9.18;3.92;;;22.90;38.20;;;;;;6133432;28;84115;-59
2023/02/02 12:37:56;;;;;;;4.93;2.78;;;22.90;38.20;;;;;;6147191;28;80281;-58
2023/02/02 12:40:57;;;;;;;6.35;3.92;;;22.90;38.40;;;;;;6119900;28;81919;-59
2023/02/02 12:43:57;;;;;;;7.70;4.07;;;22.90;38.40;;;;;;6131829;28;83854;-57
2023/02/02 12:46:58;;;;;;;8.35;3.42;;;22.90;38.70;;;;;;6129163;28;80492;-58
2023/02/02 12:49:59;;;;;;;8.57;4.35;;;22.90;38.80;;;;;;6138921;28;80344;-60
2023/02/02 12:52:59;;;;;;;5.97;3.80;;;23.00;39.60;;;;;;6125128;28;87217;-58
2023/02/02 12:56:00;;;;;;;9.05;4.68;;;22.90;39.40;;;;;;6114219;28;80757;-59
2023/02/02 12:59:00;;;;;;;7.93;4.70;;;22.90;39.80;;;;;;6130735;28;81251;-60
2023/02/02 13:02:01;;;;;;;11.55;5.90;;;22.90;40.00;;;;;;6108939;28;84341;-60
2023/02/02 13:05:01;;;;;;;9.75;5.43;;;23.00;40.10;;;;;;6115927;28;80430;-60
2023/02/02 13:08:03;;;;;;;10.30;5.43;;;22.90;40.60;;;;;;6121718;28;82741;-60
2023/02/02 13:11:04;;;;;;;15.25;5.43;;;22.90;40.60;;;;;;6120249;28;81512;-59
2023/02/02 13:14:04;;;;;;;10.27;5.15;;;22.90;40.70;;;;;;6130591;28;85772;-61
2023/02/02 13:17:05;;;;;;;11.30;4.60;;;22.90;40.90;;;;;;6108185;28;82262;-61
2023/02/02 13:20:06;;;;;;;8.70;4.40;;;22.90;41.60;;;;;;6118906;28;80687;-60
2023/02/02 13:23:06;;;;;;;8.23;4.05;;;22.90;41.00;;;;;;6112975;28;80693;-61
2023/02/02 13:26:07;;;;;;;8.68;4.38;;;22.90;40.80;;;;;;6119155;28;83335;-60
2023/02/02 13:29:08;;;;;;;9.52;3.70;;;22.90;40.80;;;;;;6123544;28;81368;-59
2023/02/02 13:32:08;;;;;;;7.28;3.65;;;22.90;40.70;;;;;;6119218;28;80580;-49
2023/02/02 13:35:09;;;;;;;10.82;4.00;;;22.90;40.70;;;;;;6122749;28;80985;-47
2023/02/02 13:38:09;;;;;;;6.95;3.65;;;22.90;40.90;;;;;;6137106;28;80706;-49
2023/02/02 13:41:12;;;;;;;6.75;3.50;;;22.90;40.30;;;;;;6132604;28;83778;-51
2023/02/02 13:44:12;;;;;;;6.85;3.50;;;22.80;40.50;;;;;;6121770;28;80565;-47
2023/02/02 13:47:13;;;;;;;4.97;3.00;;;22.80;40.90;;;;;;6127103;28;80017;-48
2023/02/02 13:50:13;;;;;;;7.15;3.50;;;22.80;40.80;;;;;;6126336;28;81858;-52
2023/02/02 13:53:14;;;;;;;5.88;3.22;;;22.80;40.50;;;;;;6121470;28;82384;-47
2023/02/02 13:56:14;;;;;;;7.30;3.78;;;22.80;40.40;;;;;;6119724;28;80759;-48
2023/02/02 13:59:15;;;;;;;4.68;2.65;;;22.80;40.30;;;;;;6116959;28;81386;-51
2023/02/02 14:02:19;;;;;;;7.78;3.25;;;22.80;40.20;;;;;;6116295;28;80920;-45
2023/02/02 14:05:20;;;;;;;5.65;3.25;;;22.80;40.10;;;;;;6116437;28;81381;-50
2023/02/02 14:08:20;;;;;;;7.50;3.22;;;22.80;40.00;;;;;;6109686;28;83472;-50
2023/02/02 14:11:21;;;;;;;4.82;3.08;;;22.80;39.90;;;;;;6111532;28;81488;-48
2023/02/02 14:14:30;;;;;;;4.65;2.95;;;22.80;39.90;;;;;;6103266;28;80402;-58
2023/02/02 14:17:31;;;;;;;5.80;3.03;;;22.80;39.90;;;;;;6120506;28;81663;-61
2023/02/02 14:20:31;;;;;;;10.10;3.45;;;22.80;39.60;;;;;;6114980;28;84575;-47
2023/02/02 14:23:32;;;;;;;7.13;3.33;;;22.80;40.10;;;;;;6120108;28;80595;-48
2023/02/02 14:26:32;;;;;;;5.72;2.90;;;22.80;39.70;;;;;;6116457;28;84056;-47
2023/02/02 14:29:40;;;;;;;5.55;2.83;;;22.80;40.00;;;;;;6111775;28;80060;-60
2023/02/02 14:32:41;;;;;;;6.20;3.40;;;22.80;40.20;;;;;;6110957;28;88014;-59
2023/02/02 14:35:41;;;;;;;6.75;3.17;;;22.90;40.60;;;;;;6121303;28;81787;-61
2023/02/02 14:38:43;;;;;;;7.43;3.60;;;22.90;40.50;;;;;;6116982;28;80780;-61
2023/02/02 14:45:03;;;;;;;6.85;3.72;;;22.90;40.70;;;;;;6110094;28;81250;-60
2023/02/02 14:48:03;;;;;;;8.32;3.47;;;22.90;40.90;;;;;;6113604;28;81972;-50
2023/02/02 14:51:04;;;;;;;7.93;4.03;;;23.00;41.70;;;;;;6113506;28;81632;-50
2023/02/02 14:54:05;;;;;;;6.85;3.92;;;22.90;41.00;;;;;;6115114;28;80365;-50
2023/02/02 14:57:05;;;;;;;5.68;3.40;;;23.00;41.10;;;;;;6114458;28;80541;-50
2023/02/02 15:00:06;;;;;;;7.68;4.15;;;23.00;41.20;;;;;;6113865;28;84800;-52
2023/02/02 15:03:06;;;;;;;12.88;4.38;;;23.00;41.20;;;;;;6115136;28;81666;-50
2023/02/02 15:06:07;;;;;;;9.73;4.22;;;23.00;40.90;;;;;;6114096;28;86321;-48
2023/02/02 15:09:07;;;;;;;6.70;3.75;;;23.00;40.90;;;;;;6122305;28;80330;-57
2023/02/02 15:12:08;;;;;;;6.80;3.90;;;23.00;40.60;;;;;;6133098;28;81958;-47
2023/02/02 15:15:09;;;;;;;7.18;3.63;;;23.00;41.30;;;;;;6117858;28;80145;-48
2023/02/02 15:18:11;;;;;;;6.30;4.38;;;23.00;40.80;;;;;;6120622;28;80507;-47
2023/02/02 15:21:12;;;;;;;7.07;3.75;;;23.00;40.90;;;;;;6128846;28;85781;-51
2023/02/02 15:24:12;;;;;;;8.60;3.88;;;23.00;40.90;;;;;;6127928;28;82184;-53
2023/02/02 15:27:13;;;;;;;9.48;3.70;;;23.00;40.90;;;;;;6124119;28;80873;-52
2023/02/02 15:30:13;;;;;;;10.75;3.88;;;23.10;41.10;;;;;;6109849;28;80521;-47
2023/02/02 15:33:14;;;;;;;10.98;3.58;;;23.10;41.20;;;;;;6110691;28;81121;-52
2023/02/02 15:36:14;;;;;;;7.22;3.65;;;23.10;41.40;;;;;;6101157;28;80372;-57
2023/02/02 15:39:15;;;;;;;6.55;3.67;;;23.10;41.30;;;;;;6109113;28;80173;-55
2023/02/02 15:45:36;;;;;;;7.22;3.90;;;23.10;40.70;;;;;;6112715;28;80816;-52
2023/02/02 15:48:37;;;;;;;8.07;3.97;;;23.10;40.50;;;;;;6114768;28;85288;-50
2023/02/02 15:51:37;;;;;;;6.70;3.65;;;23.10;41.30;;;;;;6112948;28;80815;-54
2023/02/02 15:54:38;;;;;;;6.45;3.78;;;23.10;40.70;;;;;;6120587;28;80686;-52
2023/02/02 15:57:39;;;;;;;9.13;3.85;;;23.10;40.80;;;;;;6112766;28;80993;-51